Time;durP1;ratioP1;P1;durP2;ratioP2;P2;SDS_P1;SDS_P2;PMS_P1;PMS_P2;Temp;Humidity;BMP_temperature;BMP_pressure;BME280_temperature;BME280_humidity;BME280_pressure;Samples;Min_cycle;Max_cycle;Signal;HPM_P1;HPM_P2
2021/03/23 07:50:56;;;;;;;61.55;21.90;;;6.00;99.90;;;;;;5063651;27;20381;-76
2021/03/23 07:53:48;;;;;;;52.20;21.23;;;6.00;99.90;;;;;;5065836;28;20040;-77
2021/03/23 07:56:16;;;;;;;53.88;21.65;;;6.50;99.90;;;;;;5038127;28;362518;-78
2021/03/23 07:59:01;;;;;;;53.83;20.73;;;7.00;99.90;;;;;;5045413;28;20041;-78
2021/03/23 08:01:48;;;;;;;51.17;21.42;;;7.40;99.90;;;;;;5050790;28;20403;-78
2021/03/23 08:04:40;;;;;;;55.35;22.15;;;7.80;99.90;;;;;;5045526;28;20419;-77
2021/03/23 08:09:47;;;;;;;57.00;22.05;;;8.10;99.90;;;;;;5038645;27;20646;-80
2021/03/23 08:12:44;;;;;;;55.90;22.48;;;8.60;99.90;;;;;;5049312;27;20033;-81
2021/03/23 08:15:35;;;;;;;48.72;20.48;;;8.80;99.90;;;;;;5034010;28;20616;-79
2021/03/23 08:18:44;;;;;;;50.13;19.30;;;8.90;99.90;;;;;;4977823;28;20042;-79
2021/03/23 08:21:48;;;;;;;45.17;18.65;;;9.00;99.90;;;;;;4962069;28;20030;-81
2021/03/23 08:24:24;;;;;;;49.00;18.38;;;9.20;99.90;;;;;;4901691;29;21122;-77
2021/03/23 08:27:09;;;;;;;55.05;19.00;;;9.30;99.90;;;;;;4903244;29;20100;-79
2021/03/23 08:30:02;;;;;;;49.63;18.65;;;9.40;99.90;;;;;;4904084;29;20064;-79
2021/03/23 08:32:40;;;;;;;51.50;18.80;;;9.40;99.90;;;;;;4901910;29;20769;-79
2021/03/23 08:35:42;;;;;;;55.40;19.75;;;9.60;99.90;;;;;;4900430;29;20522;-77
2021/03/23 08:38:42;;;;;;;52.08;19.38;;;9.60;99.90;;;;;;4898647;29;20742;-77
2021/03/23 08:41:23;;;;;;;56.00;19.90;;;9.70;99.90;;;;;;4878604;29;20464;-78
2021/03/23 08:43:49;;;;;;;51.17;20.13;;;9.80;99.80;;;;;;4880208;29;20036;-77
2021/03/23 08:46:23;;;;;;;50.00;20.10;;;9.80;99.40;;;;;;4880292;29;20041;-78
2021/03/23 08:48:59;;;;;;;51.22;21.13;;;9.90;98.80;;;;;;4878624;29;20053;-78
2021/03/23 08:51:27;;;;;;;53.05;20.17;;;9.90;98.70;;;;;;4878819;29;20048;-77
2021/03/23 08:53:55;;;;;;;53.25;19.45;;;10.00;98.40;;;;;;4880550;28;20029;-77
2021/03/23 08:56:48;;;;;;;45.40;20.08;;;10.00;98.40;;;;;;5033406;28;20053;-76
2021/03/23 08:59:34;;;;;;;48.03;18.95;;;10.10;98.40;;;;;;5032535;28;20045;-75
2021/03/23 09:02:21;;;;;;;50.88;18.88;;;10.20;97.90;;;;;;5033891;28;20120;-76
2021/03/23 09:04:50;;;;;;;52.38;19.52;;;10.20;96.70;;;;;;5064833;28;20033;-76
2021/03/23 09:07:15;;;;;;;42.05;16.05;;;10.10;94.80;;;;;;5032636;28;20036;-77
2021/03/23 09:09:44;;;;;;;39.90;16.85;;;10.10;95.10;;;;;;5032776;28;20037;-79
2021/03/23 09:12:12;;;;;;;43.35;16.83;;;10.20;94.80;;;;;;5033735;28;20040;-78
2021/03/23 09:15:18;;;;;;;44.85;17.60;;;10.20;94.80;;;;;;5034688;28;20508;-78
2021/03/23 09:18:12;;;;;;;50.60;17.10;;;10.20;94.90;;;;;;5037401;28;20460;-77
2021/03/23 09:21:57;;;;;;;42.53;15.65;;;10.30;94.80;;;;;;5022548;28;20996;-77
2021/03/23 09:24:27;;;;;;;39.80;14.60;;;10.30;93.90;;;;;;5016849;28;20026;-77
2021/03/23 09:26:55;;;;;;;33.85;12.90;;;10.40;93.20;;;;;;5012347;28;20094;-77
2021/03/23 09:29:44;;;;;;;35.60;14.13;;;10.30;92.40;;;;;;5013533;28;20021;-77
2021/03/23 09:32:14;;;;;;;34.95;13.65;;;10.30;92.40;;;;;;5018592;28;20024;-77
2021/03/23 09:35:04;;;;;;;35.60;13.82;;;10.30;92.70;;;;;;5020284;28;20445;-78
2021/03/23 09:37:56;;;;;;;40.67;15.65;;;10.40;92.90;;;;;;5018477;28;20037;-79
2021/03/23 09:40:22;;;;;;;43.55;16.35;;;10.40;92.90;;;;;;5019077;28;20160;-79
2021/03/23 09:42:50;;;;;;;41.22;14.82;;;10.50;92.80;;;;;;5019069;28;20501;-79
2021/03/23 09:45:25;;;;;;;38.65;14.82;;;10.50;92.60;;;;;;5021236;28;20080;-82
2021/03/23 09:48:12;;;;;;;39.00;15.57;;;10.50;92.50;;;;;;5006147;28;59989;-80
2021/03/23 09:50:53;;;;;;;38.47;15.77;;;10.50;92.50;;;;;;5014056;28;20474;-78
2021/03/23 09:53:28;;;;;;;35.05;15.20;;;10.50;92.60;;;;;;5011754;28;20038;-79
2021/03/23 09:56:04;;;;;;;32.83;14.55;;;10.60;92.40;;;;;;5013937;28;20042;-77
2021/03/23 09:58:30;;;;;;;40.33;15.70;;;10.60;92.30;;;;;;5013960;28;20109;-77
2021/03/23 10:01:16;;;;;;;34.75;14.57;;;10.60;91.90;;;;;;5013429;28;21743;-78
2021/03/23 10:03:43;;;;;;;41.50;16.00;;;10.60;91.80;;;;;;5012587;28;20022;-77
2021/03/23 10:06:13;;;;;;;39.22;15.77;;;10.70;91.70;;;;;;5011001;28;20040;-78
2021/03/23 10:08:52;;;;;;;40.28;15.10;;;10.60;91.70;;;;;;5015515;28;20049;-79
2021/03/23 10:11:20;;;;;;;36.20;14.60;;;10.70;91.90;;;;;;5014147;28;20077;-79
2021/03/23 10:13:50;;;;;;;40.85;15.57;;;10.70;91.50;;;;;;5013135;28;20047;-79
2021/03/23 10:16:43;;;;;;;40.20;14.90;;;10.70;91.20;;;;;;5018079;28;20041;-79
2021/03/23 10:19:23;;;;;;;41.45;15.32;;;10.70;91.30;;;;;;5010671;28;20069;-79
2021/03/23 10:21:52;;;;;;;41.15;15.13;;;10.70;91.70;;;;;;5014748;28;20060;-79
2021/03/23 10:24:24;;;;;;;43.47;15.15;;;10.80;91.50;;;;;;5014993;28;21373;-80
2021/03/23 10:26:52;;;;;;;39.78;16.15;;;10.80;91.50;;;;;;5016909;28;20034;-79
2021/03/23 10:29:17;;;;;;;33.20;15.00;;;10.80;91.80;;;;;;5012542;28;20040;-80
2021/03/23 10:31:51;;;;;;;39.75;15.13;;;10.90;91.70;;;;;;5009365;28;20488;-80
2021/03/23 10:34:29;;;;;;;37.92;15.25;;;10.90;91.20;;;;;;5006893;28;20029;-78
2021/03/23 10:37:04;;;;;;;35.95;15.00;;;10.90;91.20;;;;;;4999096;28;20034;-78
2021/03/23 10:39:39;;;;;;;35.55;15.75;;;11.00;91.30;;;;;;5000057;28;20034;-78
2021/03/23 10:42:25;;;;;;;38.20;15.25;;;11.00;90.80;;;;;;5000475;28;20030;-79
2021/03/23 10:45:13;;;;;;;36.00;14.73;;;10.90;90.70;;;;;;5000387;28;20127;-79
2021/03/23 10:47:44;;;;;;;43.67;15.48;;;11.00;90.80;;;;;;4999564;28;20038;-81
2021/03/23 10:50:22;;;;;;;37.58;16.15;;;11.00;90.90;;;;;;4998386;28;20501;-79
2021/03/23 10:52:48;;;;;;;37.55;16.30;;;11.00;90.90;;;;;;5001755;28;20112;-80
2021/03/23 10:55:41;;;;;;;36.13;14.68;;;11.00;90.80;;;;;;4996909;28;20045;-80
2021/03/23 10:58:26;;;;;;;37.85;15.85;;;11.00;90.70;;;;;;5000875;28;20128;-80
2021/03/23 11:01:29;;;;;;;34.60;14.57;;;11.10;90.90;;;;;;4996016;28;20030;-80
2021/03/23 11:04:13;;;;;;;41.75;14.90;;;11.10;91.00;;;;;;4986187;28;20038;-79
2021/03/23 11:06:40;;;;;;;38.60;15.48;;;11.20;91.00;;;;;;4982988;28;20623;-80
2021/03/23 11:09:14;;;;;;;40.45;15.98;;;11.30;90.90;;;;;;4982067;28;20030;-80
2021/03/23 11:11:39;;;;;;;39.28;15.40;;;11.30;90.60;;;;;;4985029;28;20030;-81
2021/03/23 11:14:05;;;;;;;38.97;14.50;;;11.30;90.60;;;;;;4967667;28;20065;-80
2021/03/23 11:16:33;;;;;;;37.97;15.07;;;11.40;90.70;;;;;;4982932;28;20785;-80
2021/03/23 11:19:03;;;;;;;36.15;14.50;;;11.40;90.80;;;;;;4987412;28;20105;-80
2021/03/23 11:21:35;;;;;;;37.67;14.35;;;11.40;90.60;;;;;;4987144;28;20056;-80
2021/03/23 11:24:01;;;;;;;41.65;14.02;;;11.50;90.40;;;;;;4983648;28;20027;-80
2021/03/23 11:26:31;;;;;;;28.05;13.40;;;11.60;90.50;;;;;;4981828;28;21486;-81
2021/03/23 11:28:58;;;;;;;36.47;14.70;;;11.60;90.30;;;;;;4984723;28;20076;-80
2021/03/23 11:31:27;;;;;;;33.00;14.15;;;11.60;90.00;;;;;;4983534;28;20044;-79
2021/03/23 11:33:55;;;;;;;31.60;14.13;;;11.70;89.10;;;;;;4979970;28;20077;-79
2021/03/23 11:36:21;;;;;;;39.80;13.88;;;11.70;89.10;;;;;;4983208;28;21420;-79
2021/03/23 11:38:47;;;;;;;31.33;12.98;;;11.70;89.80;;;;;;4982739;28;20030;-80
2021/03/23 11:41:37;;;;;;;30.20;14.90;;;11.80;90.00;;;;;;4991405;28;20042;-80
2021/03/23 11:44:07;;;;;;;34.15;13.85;;;11.90;88.80;;;;;;4997760;28;20031;-80
2021/03/23 11:47:03;;;;;;;32.22;14.15;;;12.00;88.20;;;;;;4999233;28;20127;-80
2021/03/23 11:49:56;;;;;;;33.03;14.25;;;12.00;88.50;;;;;;5001289;28;20037;-80
2021/03/23 11:52:23;;;;;;;33.45;13.63;;;12.10;88.10;;;;;;4999977;28;20075;-80
2021/03/23 11:54:48;;;;;;;34.53;14.15;;;12.20;87.90;;;;;;4998934;28;20042;-80
2021/03/23 11:57:14;;;;;;;34.22;13.90;;;12.20;86.90;;;;;;4997958;28;20034;-80
2021/03/23 11:59:40;;;;;;;34.25;13.07;;;12.20;86.50;;;;;;4998684;28;20124;-81
2021/03/23 12:02:07;;;;;;;35.75;14.85;;;12.20;85.40;;;;;;4998431;28;20113;-80
2021/03/23 12:04:33;;;;;;;34.50;13.45;;;12.30;85.40;;;;;;5001401;28;20812;-79
2021/03/23 12:07:22;;;;;;;35.72;13.13;;;12.30;84.70;;;;;;4999663;28;20038;-79
2021/03/23 12:10:02;;;;;;;43.90;15.95;;;12.40;84.70;;;;;;4997679;28;20026;-80
2021/03/23 12:12:43;;;;;;;32.55;13.98;;;12.40;84.00;;;;;;4999290;28;20041;-79
2021/03/23 12:15:10;;;;;;;30.80;12.75;;;12.40;83.10;;;;;;4997094;28;20029;-80
2021/03/23 12:17:39;;;;;;;32.15;13.82;;;12.50;83.60;;;;;;4999642;28;20030;-79
2021/03/23 12:20:13;;;;;;;33.40;13.57;;;12.60;84.40;;;;;;4999230;28;20046;-80
2021/03/23 12:22:39;;;;;;;37.53;14.88;;;12.60;84.70;;;;;;4996250;28;20400;-80
2021/03/23 12:25:07;;;;;;;33.95;14.23;;;12.70;84.30;;;;;;5006274;28;20121;-79
2021/03/23 12:27:35;;;;;;;35.35;12.73;;;12.80;84.30;;;;;;4984539;28;20056;-82
2021/03/23 12:30:02;;;;;;;33.10;13.32;;;12.90;84.60;;;;;;4997401;28;20034;-80
2021/03/23 12:32:28;;;;;;;30.15;13.35;;;13.00;84.30;;;;;;5000596;28;20049;-83
2021/03/23 12:34:54;;;;;;;32.88;12.73;;;13.10;83.30;;;;;;4998811;28;20034;-81
2021/03/23 12:37:21;;;;;;;30.30;13.20;;;13.10;82.90;;;;;;5002364;28;20501;-80
2021/03/23 12:39:47;;;;;;;33.70;13.98;;;13.20;82.40;;;;;;4995916;28;20113;-81
2021/03/23 12:42:16;;;;;;;29.85;13.52;;;13.30;81.40;;;;;;4996687;28;20022;-80
2021/03/23 12:44:42;;;;;;;29.90;12.50;;;13.30;81.20;;;;;;5016831;28;20018;-80
2021/03/23 12:47:10;;;;;;;31.38;13.07;;;13.40;82.00;;;;;;4996913;28;20038;-79
2021/03/23 12:49:36;;;;;;;30.88;13.27;;;13.50;82.30;;;;;;4996418;28;20464;-81
2021/03/23 12:52:03;;;;;;;31.58;12.43;;;13.60;81.90;;;;;;5013471;28;20061;-81
2021/03/23 12:54:42;;;;;;;31.83;13.27;;;13.70;81.10;;;;;;5000606;28;20032;-80
2021/03/23 12:57:14;;;;;;;26.08;12.75;;;13.70;80.70;;;;;;4997552;28;20544;-80
2021/03/23 12:59:40;;;;;;;33.90;14.65;;;13.80;80.60;;;;;;4998323;28;20405;-80
2021/03/23 13:02:06;;;;;;;30.30;13.75;;;13.90;80.50;;;;;;5001394;28;20481;-79
2021/03/23 13:04:32;;;;;;;29.67;13.02;;;13.90;80.50;;;;;;4999098;28;20030;-80
2021/03/23 13:06:58;;;;;;;29.92;13.30;;;14.00;80.10;;;;;;4999895;28;20033;-80
2021/03/23 13:09:32;;;;;;;27.50;12.43;;;14.10;79.70;;;;;;4996897;28;20023;-80
2021/03/23 13:11:58;;;;;;;27.35;12.10;;;14.20;78.90;;;;;;4998973;28;20034;-80
2021/03/23 13:14:27;;;;;;;27.27;12.02;;;14.20;78.60;;;;;;4995675;28;20397;-80
2021/03/23 13:16:54;;;;;;;27.05;12.48;;;14.30;78.00;;;;;;4999447;28;20050;-80
2021/03/23 13:19:21;;;;;;;28.67;11.68;;;14.30;77.90;;;;;;5000775;28;20048;-81
2021/03/23 13:22:01;;;;;;;28.63;12.55;;;14.40;77.20;;;;;;4998161;28;20029;-78
2021/03/23 13:24:38;;;;;;;30.30;12.45;;;14.50;76.40;;;;;;4994402;28;20040;-78
2021/03/23 13:27:26;;;;;;;29.27;11.95;;;14.60;76.50;;;;;;4991013;28;20165;-79
2021/03/23 13:29:53;;;;;;;28.35;12.07;;;14.60;76.00;;;;;;4994615;28;20037;-77
2021/03/23 13:32:22;;;;;;;28.92;12.98;;;14.70;75.10;;;;;;4993958;28;20129;-77
2021/03/23 13:34:48;;;;;;;29.08;13.57;;;14.80;75.30;;;;;;4991673;28;20396;-78
2021/03/23 13:37:22;;;;;;;25.83;13.23;;;14.80;75.30;;;;;;4988524;28;20042;-78
2021/03/23 13:39:51;;;;;;;30.58;12.52;;;14.90;75.10;;;;;;4993735;28;20037;-79
2021/03/23 13:42:27;;;;;;;26.30;12.93;;;14.90;74.70;;;;;;4988049;28;20034;-81
2021/03/23 13:44:52;;;;;;;32.28;13.52;;;15.00;74.40;;;;;;4995660;28;20369;-77
2021/03/23 13:47:23;;;;;;;27.83;12.07;;;15.10;74.00;;;;;;4990647;28;20035;-76
2021/03/23 13:49:50;;;;;;;32.10;13.77;;;15.10;73.80;;;;;;4993196;28;20373;-77
2021/03/23 13:52:26;;;;;;;35.42;12.95;;;15.20;73.30;;;;;;4993893;28;20048;-77
2021/03/23 13:54:51;;;;;;;33.08;15.45;;;15.20;72.50;;;;;;4990578;28;20034;-76
2021/03/23 13:57:18;;;;;;;26.90;13.88;;;15.20;71.50;;;;;;4990672;28;20033;-77
2021/03/23 13:59:44;;;;;;;29.50;12.75;;;15.30;71.00;;;;;;4991326;28;20595;-79
2021/03/23 14:02:13;;;;;;;26.52;12.75;;;15.30;70.70;;;;;;4994833;28;20034;-79
2021/03/23 14:04:39;;;;;;;27.92;12.52;;;15.30;71.10;;;;;;4995211;28;20254;-78
2021/03/23 14:07:05;;;;;;;31.88;12.40;;;15.30;71.10;;;;;;4994579;28;20022;-79
2021/03/23 14:09:35;;;;;;;26.75;11.77;;;15.40;70.70;;;;;;4997896;28;20413;-79
2021/03/23 14:12:03;;;;;;;33.95;12.25;;;15.40;70.80;;;;;;4997841;28;20038;-79
2021/03/23 14:14:29;;;;;;;29.00;12.40;;;15.40;70.30;;;;;;4995477;28;20033;-78
2021/03/23 14:16:56;;;;;;;30.00;12.13;;;15.40;70.20;;;;;;4996444;28;20112;-77
2021/03/23 14:19:24;;;;;;;25.77;12.30;;;15.40;70.00;;;;;;4992796;28;20026;-77
2021/03/23 14:21:50;;;;;;;29.90;12.18;;;15.40;69.70;;;;;;4994644;28;20034;-76
2021/03/23 14:24:18;;;;;;;31.88;12.38;;;15.50;68.60;;;;;;4996375;28;20076;-78
2021/03/23 14:26:44;;;;;;;26.00;12.13;;;15.50;68.70;;;;;;4997613;28;20397;-78
2021/03/23 14:29:11;;;;;;;27.63;11.93;;;15.50;69.20;;;;;;4993516;28;20091;-77
2021/03/23 14:31:37;;;;;;;26.63;12.00;;;15.60;69.50;;;;;;4998204;28;20022;-80
2021/03/23 14:34:04;;;;;;;26.90;12.23;;;15.70;68.70;;;;;;4991516;28;20026;-80
2021/03/23 14:36:32;;;;;;;32.38;11.70;;;15.70;68.00;;;;;;4993492;28;20033;-76
2021/03/23 14:39:14;;;;;;;26.10;11.88;;;15.80;67.90;;;;;;4996524;28;20705;-77
2021/03/23 14:41:44;;;;;;;22.17;11.43;;;15.80;66.90;;;;;;4993245;28;20036;-78
2021/03/23 14:44:17;;;;;;;25.15;11.63;;;15.90;66.80;;;;;;4996482;28;20046;-77
2021/03/23 14:46:43;;;;;;;24.65;11.30;;;15.90;66.60;;;;;;4996405;28;20030;-77
2021/03/23 14:49:09;;;;;;;25.67;11.40;;;16.10;66.90;;;;;;4994734;28;20031;-78
2021/03/23 14:51:42;;;;;;;28.25;11.40;;;16.10;66.80;;;;;;4993638;28;20069;-78
2021/03/23 14:54:16;;;;;;;31.83;11.15;;;16.10;66.00;;;;;;4995268;28;20045;-79
2021/03/23 14:56:42;;;;;;;27.75;11.55;;;16.10;64.70;;;;;;4994909;28;20029;-77
2021/03/23 14:59:13;;;;;;;29.95;11.63;;;16.20;64.20;;;;;;4995804;28;20044;-78
2021/03/23 15:01:39;;;;;;;22.52;11.38;;;16.20;64.70;;;;;;4999289;28;20034;-79
2021/03/23 15:04:05;;;;;;;27.08;11.90;;;16.20;65.10;;;;;;4996675;28;20033;-78
2021/03/23 15:06:31;;;;;;;24.15;11.52;;;16.20;64.70;;;;;;4994920;28;20031;-79
2021/03/23 15:09:01;;;;;;;26.20;11.10;;;16.20;64.90;;;;;;4992753;28;20076;-77
2021/03/23 15:11:33;;;;;;;25.40;11.60;;;16.20;64.80;;;;;;4996019;28;20032;-79
2021/03/23 15:14:04;;;;;;;24.63;10.65;;;16.30;65.10;;;;;;4997696;28;20041;-79
2021/03/23 15:16:30;;;;;;;27.30;11.00;;;16.30;64.60;;;;;;4999068;28;21465;-80
2021/03/23 15:18:56;;;;;;;29.73;10.98;;;16.30;64.40;;;;;;4999905;28;20093;-80
2021/03/23 15:21:34;;;;;;;30.23;11.30;;;16.20;63.40;;;;;;4998173;28;20046;-79
2021/03/23 15:24:02;;;;;;;25.27;10.75;;;16.20;63.80;;;;;;5000555;28;20026;-78
2021/03/23 15:26:27;;;;;;;25.25;11.02;;;16.20;64.70;;;;;;4995430;28;20049;-78
2021/03/23 15:28:54;;;;;;;26.20;10.93;;;16.10;62.70;;;;;;5001409;28;20442;-79
2021/03/23 15:31:20;;;;;;;29.67;11.25;;;16.10;62.50;;;;;;4994517;28;20038;-78
2021/03/23 15:33:46;;;;;;;27.30;11.98;;;15.90;62.90;;;;;;4997008;28;20033;-80
2021/03/23 15:36:37;;;;;;;23.67;11.32;;;16.00;63.80;;;;;;4997226;28;20081;-79
2021/03/23 15:39:18;;;;;;;21.77;9.73;;;16.00;64.10;;;;;;4995253;28;20509;-77
2021/03/23 15:41:44;;;;;;;22.25;10.57;;;16.00;64.30;;;;;;4994521;28;20044;-78
2021/03/23 15:44:11;;;;;;;22.17;9.50;;;16.10;63.70;;;;;;4996585;28;20505;-78
2021/03/23 15:46:36;;;;;;;21.95;9.88;;;16.10;64.00;;;;;;4998862;28;20036;-82
2021/03/23 15:49:02;;;;;;;22.73;10.63;;;16.10;64.10;;;;;;4997730;28;20038;-77
2021/03/23 15:51:30;;;;;;;22.05;10.60;;;16.10;64.50;;;;;;4994510;28;20030;-83
2021/03/23 15:53:57;;;;;;;24.10;11.00;;;16.20;64.50;;;;;;4998013;28;20615;-85
2021/03/23 15:56:29;;;;;;;26.13;11.35;;;16.10;63.90;;;;;;4997277;28;20088;-80
2021/03/23 15:58:55;;;;;;;26.77;10.93;;;16.20;64.00;;;;;;4996684;28;20038;-78
2021/03/23 16:01:21;;;;;;;26.23;11.88;;;16.20;64.40;;;;;;5000321;28;20041;-78
2021/03/23 16:03:47;;;;;;;27.20;10.73;;;16.20;63.90;;;;;;4994697;28;20025;-80
2021/03/23 16:06:23;;;;;;;32.53;10.98;;;16.30;64.10;;;;;;4995108;28;20022;-81
2021/03/23 16:08:49;;;;;;;21.98;10.65;;;16.30;64.30;;;;;;4992415;28;20030;-87
2021/03/23 16:11:20;;;;;;;24.10;10.90;;;16.40;63.90;;;;;;4993889;28;20153;-89
2021/03/23 16:13:46;;;;;;;24.38;10.82;;;16.40;64.20;;;;;;4996298;28;20052;-78
2021/03/23 16:16:13;;;;;;;21.10;10.68;;;16.40;63.90;;;;;;4989902;28;20040;-77
2021/03/23 16:18:39;;;;;;;25.10;11.20;;;16.40;63.70;;;;;;4996240;28;20485;-77
2021/03/23 16:21:06;;;;;;;24.45;10.77;;;16.50;63.70;;;;;;4991653;28;20505;-78
2021/03/23 16:23:34;;;;;;;24.98;10.77;;;16.50;63.40;;;;;;4992190;28;20113;-77
2021/03/23 16:26:01;;;;;;;26.83;11.10;;;16.60;62.70;;;;;;4998131;28;20490;-81
2021/03/23 16:28:34;;;;;;;24.38;10.55;;;16.50;63.10;;;;;;4995542;28;20034;-78
2021/03/23 16:31:00;;;;;;;27.75;9.98;;;16.60;63.40;;;;;;4998308;28;20034;-87
2021/03/23 16:33:26;;;;;;;24.98;10.52;;;16.50;63.10;;;;;;4995542;28;20058;-79
2021/03/23 16:35:52;;;;;;;26.25;11.27;;;16.50;63.20;;;;;;4993176;28;20061;-79
2021/03/23 16:38:25;;;;;;;22.83;10.82;;;16.50;63.30;;;;;;4996262;28;20065;-80
2021/03/23 16:40:51;;;;;;;24.38;10.65;;;16.50;63.70;;;;;;4986643;28;20481;-75
2021/03/23 16:43:30;;;;;;;27.88;10.52;;;16.50;64.20;;;;;;4985205;28;20082;-76
2021/03/23 16:46:02;;;;;;;28.02;10.90;;;16.40;64.10;;;;;;4990268;28;20034;-77
2021/03/23 16:48:28;;;;;;;24.27;10.77;;;16.40;64.20;;;;;;4991846;28;20044;-76
2021/03/23 16:50:54;;;;;;;30.23;13.50;;;16.40;64.50;;;;;;4993351;28;20038;-76
2021/03/23 16:53:23;;;;;;;24.48;11.30;;;16.60;64.40;;;;;;4989591;28;20037;-76
2021/03/23 16:55:48;;;;;;;25.30;10.43;;;16.80;63.40;;;;;;4993975;28;20033;-75
2021/03/23 16:58:14;;;;;;;25.17;10.32;;;17.30;62.40;;;;;;4991836;28;20436;-76
2021/03/23 17:00:43;;;;;;;27.10;9.75;;;17.90;60.40;;;;;;4992469;28;20722;-76
2021/03/23 17:03:12;;;;;;;22.50;9.52;;;18.70;58.80;;;;;;4993400;28;20205;-74
2021/03/23 17:05:40;;;;;;;21.38;10.23;;;19.60;56.30;;;;;;4991098;28;20122;-75
2021/03/23 17:08:06;;;;;;;24.95;10.25;;;19.70;55.30;;;;;;4992454;28;20103;-76
2021/03/23 17:10:31;;;;;;;26.95;10.93;;;19.40;55.60;;;;;;4991795;28;20493;-75
2021/03/23 17:12:58;;;;;;;25.50;10.57;;;19.20;56.10;;;;;;4993047;28;20436;-76
2021/03/23 17:15:25;;;;;;;23.52;10.40;;;19.10;56.90;;;;;;4991171;28;20081;-75
2021/03/23 17:17:51;;;;;;;24.40;10.40;;;19.10;57.10;;;;;;4993210;28;20176;-75
2021/03/23 17:20:26;;;;;;;22.90;10.82;;;19.40;57.00;;;;;;4993026;28;20868;-76
2021/03/23 17:22:52;;;;;;;23.20;10.25;;;19.90;56.90;;;;;;4992953;28;20194;-76
2021/03/23 17:25:25;;;;;;;23.63;10.48;;;20.00;55.10;;;;;;4991345;28;20060;-77
2021/03/23 17:27:51;;;;;;;20.83;9.88;;;19.50;55.30;;;;;;4994154;28;20759;-76
2021/03/23 17:30:20;;;;;;;24.13;9.57;;;19.00;56.20;;;;;;4991826;28;20034;-76
2021/03/23 17:32:46;;;;;;;22.42;9.23;;;18.40;57.60;;;;;;4992055;28;20057;-76
2021/03/23 17:35:12;;;;;;;29.13;9.48;;;17.90;59.20;;;;;;4992832;28;20501;-74
2021/03/23 17:37:38;;;;;;;22.98;9.15;;;17.40;60.20;;;;;;4993247;28;20033;-75
2021/03/23 17:40:06;;;;;;;24.95;9.40;;;17.00;61.80;;;;;;4996598;28;20027;-76
2021/03/23 17:42:32;;;;;;;23.80;8.50;;;16.60;63.10;;;;;;5001625;28;20038;-75
2021/03/23 17:44:59;;;;;;;23.58;9.18;;;16.30;64.20;;;;;;5012483;28;20045;-75
2021/03/23 17:47:25;;;;;;;21.30;8.70;;;16.00;65.10;;;;;;5011079;28;20037;-74
2021/03/23 17:49:50;;;;;;;26.10;8.32;;;15.70;65.60;;;;;;5004937;28;20034;-74
2021/03/23 17:52:16;;;;;;;27.00;9.25;;;15.40;66.30;;;;;;5006664;28;20066;-74
2021/03/23 17:54:42;;;;;;;22.83;8.02;;;15.10;67.30;;;;;;5004905;28;20037;-75
2021/03/23 17:57:08;;;;;;;24.50;8.27;;;14.90;69.00;;;;;;5003399;28;20722;-75
2021/03/23 17:59:33;;;;;;;22.20;8.43;;;14.70;69.80;;;;;;5016639;28;20045;-74
2021/03/23 18:01:59;;;;;;;26.42;8.05;;;14.60;70.10;;;;;;5021072;28;20045;-74
2021/03/23 18:04:25;;;;;;;19.00;7.00;;;14.40;70.60;;;;;;5023305;28;20037;-76
2021/03/23 18:06:51;;;;;;;25.85;8.40;;;14.30;71.00;;;;;;5019181;28;20034;-74
2021/03/23 18:09:18;;;;;;;17.55;8.65;;;14.10;71.50;;;;;;5019702;28;20061;-74
2021/03/23 18:11:44;;;;;;;22.15;7.93;;;14.10;72.30;;;;;;4998784;28;20026;-75
2021/03/23 18:14:10;;;;;;;33.90;8.18;;;14.00;72.90;;;;;;4997473;28;20065;-76
2021/03/23 18:16:35;;;;;;;24.70;9.82;;;13.90;73.40;;;;;;5001281;28;20026;-75
2021/03/23 18:19:02;;;;;;;32.60;11.95;;;13.80;73.70;;;;;;4998398;28;20044;-74
2021/03/23 18:21:28;;;;;;;42.10;13.88;;;13.80;74.10;;;;;;5015763;28;20042;-75
2021/03/23 18:23:55;;;;;;;29.40;13.00;;;13.70;74.20;;;;;;5003761;28;20080;-75
2021/03/23 18:26:23;;;;;;;27.98;11.38;;;13.60;74.10;;;;;;5000105;28;20050;-75
2021/03/23 18:28:49;;;;;;;26.75;11.32;;;13.50;74.30;;;;;;5000674;28;20044;-75
2021/03/23 18:31:19;;;;;;;20.48;10.55;;;13.40;74.30;;;;;;4997723;28;20101;-75
2021/03/23 18:33:47;;;;;;;25.52;10.57;;;13.30;74.30;;;;;;4997954;28;20493;-75
2021/03/23 18:36:14;;;;;;;32.15;10.32;;;13.20;74.70;;;;;;5005286;28;20115;-75
2021/03/23 18:38:39;;;;;;;23.65;10.50;;;13.20;75.10;;;;;;4995841;28;20409;-76
2021/03/23 18:41:05;;;;;;;30.48;11.30;;;13.10;75.30;;;;;;4996981;28;20037;-76
2021/03/23 18:43:30;;;;;;;28.63;11.05;;;13.00;75.50;;;;;;4995473;28;20472;-76
2021/03/23 18:45:56;;;;;;;25.17;10.32;;;13.00;76.10;;;;;;4996099;28;20026;-75
2021/03/23 18:48:22;;;;;;;27.58;10.35;;;13.00;76.50;;;;;;4994817;28;20041;-75
2021/03/23 18:50:48;;;;;;;33.45;10.63;;;13.00;76.70;;;;;;4993519;28;20085;-75
2021/03/23 18:53:13;;;;;;;26.02;11.25;;;12.90;76.70;;;;;;4998712;28;20038;-75
2021/03/23 18:55:42;;;;;;;25.13;10.63;;;12.90;77.30;;;;;;5003857;28;20504;-75
2021/03/23 18:58:13;;;;;;;29.88;11.15;;;12.80;77.30;;;;;;4999917;28;20038;-75
2021/03/23 19:00:43;;;;;;;28.90;10.87;;;12.80;77.50;;;;;;5006479;28;20157;-74
2021/03/23 19:03:10;;;;;;;35.47;11.45;;;12.70;77.90;;;;;;5000414;28;20022;-75
2021/03/23 19:05:36;;;;;;;30.40;11.90;;;12.70;78.10;;;;;;4999501;28;20034;-75
2021/03/23 19:08:02;;;;;;;31.80;12.45;;;12.70;78.60;;;;;;4993174;28;20080;-72
2021/03/23 19:10:29;;;;;;;25.33;12.25;;;12.60;78.60;;;;;;4995165;28;20037;-74
2021/03/23 19:12:55;;;;;;;27.35;10.98;;;12.60;78.80;;;;;;4996420;28;20662;-73
2021/03/23 19:15:23;;;;;;;28.98;11.55;;;12.50;78.90;;;;;;4992991;28;20038;-73
2021/03/23 19:17:50;;;;;;;30.92;11.55;;;12.50;79.20;;;;;;4997023;28;20049;-74
2021/03/23 19:20:20;;;;;;;30.35;12.38;;;12.50;79.40;;;;;;4995264;28;20053;-74
2021/03/23 19:22:46;;;;;;;36.28;15.02;;;12.40;79.60;;;;;;4998200;28;20030;-73
2021/03/23 19:25:15;;;;;;;46.95;19.90;;;12.40;79.80;;;;;;4995461;28;20188;-74
2021/03/23 19:27:41;;;;;;;26.77;11.82;;;12.40;80.00;;;;;;4995837;28;20025;-74
2021/03/23 19:30:08;;;;;;;28.80;12.00;;;12.40;79.90;;;;;;4996077;28;20034;-74
2021/03/23 19:32:33;;;;;;;27.42;12.23;;;12.40;79.90;;;;;;4991880;28;20033;-75
2021/03/23 19:34:59;;;;;;;26.25;11.45;;;12.30;80.10;;;;;;4993826;28;20119;-74
2021/03/23 19:37:25;;;;;;;29.80;10.70;;;12.30;80.20;;;;;;4999812;28;20026;-74
2021/03/23 19:39:51;;;;;;;26.17;11.80;;;12.30;80.30;;;;;;4995305;28;20093;-74
2021/03/23 19:42:16;;;;;;;29.60;11.27;;;12.20;80.60;;;;;;4991953;28;20036;-74
2021/03/23 19:44:43;;;;;;;25.98;10.80;;;12.20;81.20;;;;;;4995366;28;20068;-74
2021/03/23 19:47:09;;;;;;;28.67;11.90;;;12.20;81.30;;;;;;4992156;28;20089;-74
2021/03/23 19:49:35;;;;;;;25.67;10.18;;;12.20;81.40;;;;;;4992832;28;20471;-74
2021/03/23 19:52:01;;;;;;;26.58;11.70;;;12.10;81.70;;;;;;4989069;28;20054;-75
2021/03/23 19:54:28;;;;;;;26.85;11.00;;;12.00;81.60;;;;;;4995468;28;20085;-74
2021/03/23 19:56:53;;;;;;;30.48;11.35;;;12.00;81.90;;;;;;4997896;28;20042;-74
2021/03/23 19:59:19;;;;;;;22.88;10.77;;;12.00;82.00;;;;;;4993449;28;20045;-73
2021/03/23 20:01:45;;;;;;;26.83;10.85;;;12.00;82.20;;;;;;4997653;28;20446;-74
2021/03/23 20:04:11;;;;;;;33.40;12.88;;;12.00;82.30;;;;;;4995426;28;20120;-74
2021/03/23 20:06:37;;;;;;;32.92;13.45;;;12.00;82.40;;;;;;5009935;28;20026;-74
2021/03/23 20:09:04;;;;;;;28.77;11.52;;;12.00;82.40;;;;;;4992262;28;20790;-74
2021/03/23 20:11:30;;;;;;;31.15;12.18;;;12.00;82.40;;;;;;4995255;28;20048;-74
2021/03/23 20:13:56;;;;;;;27.52;10.85;;;11.90;82.50;;;;;;4990991;28;20029;-74
2021/03/23 20:16:22;;;;;;;29.95;11.73;;;11.90;82.60;;;;;;4990747;28;20393;-73
2021/03/23 20:18:47;;;;;;;29.98;11.13;;;11.80;82.60;;;;;;4995699;28;20026;-74
2021/03/23 20:21:13;;;;;;;27.30;10.98;;;11.80;82.90;;;;;;5000703;28;20073;-73
2021/03/23 20:23:40;;;;;;;26.77;11.55;;;11.70;82.80;;;;;;5005564;28;20044;-73
2021/03/23 20:26:22;;;;;;;27.33;10.27;;;11.70;82.80;;;;;;4995279;28;20034;-75
2021/03/23 20:28:47;;;;;;;26.58;10.65;;;11.70;83.20;;;;;;5005726;28;20033;-74
2021/03/23 20:31:14;;;;;;;26.83;10.75;;;11.70;83.30;;;;;;4993688;28;20042;-76
2021/03/23 20:33:40;;;;;;;29.80;11.95;;;11.70;83.10;;;;;;4994998;28;20417;-74
2021/03/23 20:36:10;;;;;;;27.73;11.27;;;11.70;83.30;;;;;;4995800;28;20046;-75
2021/03/23 20:38:36;;;;;;;26.73;11.10;;;11.60;83.30;;;;;;4992735;28;20073;-74
2021/03/23 20:41:04;;;;;;;27.38;12.23;;;11.60;83.30;;;;;;4998031;28;20033;-74